Herzlich willkommen!

Am freundlichen Bodensee-Flugplatz zwischen Schwarzwald, Rhein und Alpen.

Aktuelles

23.05.2019
Seenachtfest
9. bis 11. August 2019 (E1308/19 NOTAMN Q) LSAS/QFALC/IV/NBO/A /000/999/4741N00908E005 A) EDTZ B) 1908090800 C) 1908111000 E) AD CLSD.)
— Flugleitung EDTZ

Live am Platz

Die Bilder unserer Webcams werden alle 5 Minuten aktualisiert.

Sonnenaufgang:

03:49 UTC / 05:49 Lokal

Sonnenuntergang:

19:10 UTC / 21:10 Lokal

METAR (24.07.2019 02:50 UTC):

EDNY 240050Z AUTO 02003KT 9999 // NCD 18/15 Q1018
VFR

TAF (24.07.2019 01:00 UTC):

TAF EDNY 232300Z 2400/2424 VRB02KT CAVOK BECMG 2409/2411 24005KT BECMG 2417/2419 VRB02KT

Alle Angaben unverbindlich und ohne Gewähr. Zeiten genähert.

Für den Verkehrslandeplatz Konstanz werden keine offiziellen Wetterinformationen ausgegeben. Daher werden zur Orientierung Daten des nahegelegenen Flughafens Friedrichshafen dargestellt.

Flugwetterdaten zur Verfügung gestellt von wippich.aero.